Time;durP1;ratioP1;P1;durP2;ratioP2;P2;SDS_P1;SDS_P2;PMS_P1;PMS_P2;Temp;Humidity;BMP_temperature;BMP_pressure;BME280_temperature;BME280_humidity;BME280_pressure;Samples;Min_cycle;Max_cycle;Signal;HPM_P1;HPM_P2
2023/05/28 00:02:07;;;;;;;;;;;9.90;1.00;;;;;;5105900;28;19924;-79
2023/05/28 00:04:32;;;;;;;;;;;9.80;99.90;;;;;;5106872;28;19928;-86
2023/05/28 00:06:58;;;;;;;;;;;9.80;99.90;;;;;;5105416;28;19934;-80
2023/05/28 00:09:23;;;;;;;;;;;9.80;99.90;;;;;;5107629;28;19947;-80
2023/05/28 00:11:49;;;;;;;;;;;9.80;99.90;;;;;;5109421;28;20022;-80
2023/05/28 00:14:15;;;;;;;;;;;9.70;99.90;;;;;;5112031;28;19986;-79
2023/05/28 00:16:43;;;;;;;;;;;9.70;99.90;;;;;;5109674;28;20292;-80
2023/05/28 00:19:09;;;;;;;;;;;9.60;99.90;;;;;;5095425;28;20322;-80
2023/05/28 00:21:35;;;;;;;;;;;9.60;99.90;;;;;;5083479;28;19924;-80
2023/05/28 00:24:00;;;;;;;;;;;9.50;99.90;;;;;;5112409;28;19927;-81
2023/05/28 00:26:26;;;;;;;;;;;9.50;99.90;;;;;;5095252;28;19934;-80
2023/05/28 00:28:52;;;;;;;;;;;9.50;99.90;;;;;;5090961;28;20022;-82
2023/05/28 00:31:17;;;;;;;;;;;9.40;99.90;;;;;;5111481;28;19934;-79
2023/05/28 00:33:43;;;;;;;;;;;9.40;99.90;;;;;;5111847;28;20040;-81
2023/05/28 00:36:10;;;;;;;;;;;9.40;99.90;;;;;;5112156;28;19931;-80
2023/05/28 00:38:36;;;;;;;;;;;9.30;99.90;;;;;;5111470;28;20349;-82
2023/05/28 00:41:01;;;;;;;;;;;9.30;99.90;;;;;;5110795;28;19928;-80
2023/05/28 00:43:27;;;;;;;;;;;9.30;99.90;;;;;;5129340;27;19920;-80
2023/05/28 00:45:56;;;;;;;;;;;9.30;99.90;;;;;;5103481;28;19927;-80
2023/05/28 00:48:22;;;;;;;;;;;9.30;1.00;;;;;;5084470;28;20352;-81
2023/05/28 00:50:48;;;;;;;;;;;9.30;1.00;;;;;;5101514;28;19975;-80
2023/05/28 00:53:13;;;;;;;;;;;9.30;1.00;;;;;;5107669;28;19938;-81
2023/05/28 00:55:39;;;;;;;;;;;9.40;1.00;;;;;;5110295;28;20018;-80
2023/05/28 00:58:07;;;;;;;;;;;9.40;1.00;;;;;;5111361;28;19931;-80
2023/05/28 01:00:33;;;;;;;;;;;9.40;1.00;;;;;;5108400;28;20377;-80
2023/05/28 01:02:58;;;;;;;;;;;9.40;1.00;;;;;;5109221;28;19935;-80
2023/05/28 01:05:24;;;;;;;;;;;9.50;1.00;;;;;;5094911;28;19924;-80
2023/05/28 01:07:50;;;;;;;;;;;9.50;1.00;;;;;;5111440;28;19934;-80
2023/05/28 01:10:16;;;;;;;;;;;9.60;1.00;;;;;;5110349;28;20010;-80
2023/05/28 01:12:44;;;;;;;;;;;9.70;1.00;;;;;;5102150;28;20293;-80
2023/05/28 01:15:09;;;;;;;;;;;9.70;1.00;;;;;;5108759;28;20471;-80
2023/05/28 01:17:38;;;;;;;;;;;9.70;1.00;;;;;;5091432;28;19971;-81
2023/05/28 01:20:05;;;;;;;;;;;9.80;1.00;;;;;;5109860;28;19928;-80
2023/05/28 01:22:37;;;;;;;;;;;9.80;1.00;;;;;;5106891;28;20295;-81
2023/05/28 01:25:09;;;;;;;;;;;9.90;1.00;;;;;;5104587;28;19928;-80
2023/05/28 01:27:39;;;;;;;;;;;9.90;1.00;;;;;;5104441;28;20544;-82
2023/05/28 01:30:07;;;;;;;;;;;9.90;1.00;;;;;;5100428;28;20006;-80
2023/05/28 01:32:32;;;;;;;;;;;9.90;1.00;;;;;;5107896;28;19928;-80
2023/05/28 01:34:59;;;;;;;;;;;10.00;1.00;;;;;;5107329;28;19931;-81
2023/05/28 01:37:25;;;;;;;;;;;10.00;1.00;;;;;;5107801;28;20372;-80
2023/05/28 01:39:51;;;;;;;;;;;10.00;1.00;;;;;;5110444;28;20300;-81
2023/05/28 01:42:16;;;;;;;;;;;10.00;1.00;;;;;;5102304;28;19925;-84
2023/05/28 01:44:43;;;;;;;;;;;10.00;1.00;;;;;;5093848;28;19928;-80
2023/05/28 01:47:10;;;;;;;;;;;10.00;1.00;;;;;;5109287;28;19923;-81
2023/05/28 01:49:36;;;;;;;;;;;10.00;1.00;;;;;;5107504;28;19928;-80
2023/05/28 01:52:03;;;;;;;;;;;10.00;1.00;;;;;;5110731;28;19935;-80
2023/05/28 01:54:28;;;;;;;;;;;10.00;1.00;;;;;;5091407;28;19935;-82
2023/05/28 01:56:54;;;;;;;;;;;10.00;1.00;;;;;;5107807;28;19924;-81
2023/05/28 01:59:20;;;;;;;;;;;10.00;1.00;;;;;;5107509;28;19984;-84
2023/05/28 02:01:45;;;;;;;;;;;10.00;1.00;;;;;;5108503;28;19928;-81
2023/05/28 02:04:11;;;;;;;;;;;10.00;1.00;;;;;;5107815;28;20006;-81
2023/05/28 02:06:36;;;;;;;;;;;10.00;1.00;;;;;;5109918;28;19946;-80
2023/05/28 02:09:02;;;;;;;;;;;10.00;1.00;;;;;;5108980;28;19927;-81
2023/05/28 02:11:27;;;;;;;;;;;10.10;1.00;;;;;;5108195;28;19927;-81
2023/05/28 02:13:54;;;;;;;;;;;10.10;1.00;;;;;;5109237;28;19973;-82
2023/05/28 02:16:20;;;;;;;;;;;10.10;1.00;;;;;;5104517;28;19978;-84
2023/05/28 02:18:47;;;;;;;;;;;10.10;1.00;;;;;;5102059;28;19935;-80
2023/05/28 02:21:13;;;;;;;;;;;10.10;1.00;;;;;;5096133;28;19981;-80
2023/05/28 02:23:41;;;;;;;;;;;10.10;1.00;;;;;;5110269;28;19931;-81
2023/05/28 02:26:06;;;;;;;;;;;10.10;1.00;;;;;;5108918;28;19969;-80
2023/05/28 02:28:32;;;;;;;;;;;10.10;1.00;;;;;;5108681;28;19943;-80
2023/05/28 02:30:57;;;;;;;;;;;10.10;1.00;;;;;;5110077;28;19935;-81
2023/05/28 02:33:23;;;;;;;;;;;10.10;1.00;;;;;;5106701;28;19927;-85
2023/05/28 02:35:48;;;;;;;;;;;10.10;1.00;;;;;;5124760;27;20329;-82
2023/05/28 02:38:14;;;;;;;;;;;10.10;1.00;;;;;;5106764;28;19928;-80
2023/05/28 02:40:41;;;;;;;;;;;10.10;1.00;;;;;;5107575;28;19931;-84
2023/05/28 02:43:06;;;;;;;;;;;10.10;1.00;;;;;;5106852;28;19955;-80
2023/05/28 02:45:32;;;;;;;;;;;10.10;1.00;;;;;;5116444;27;19967;-80
2023/05/28 02:47:57;;;;;;;;;;;10.10;1.00;;;;;;5104153;28;20429;-83
2023/05/28 02:50:23;;;;;;;;;;;10.10;1.00;;;;;;5101163;28;20023;-80
2023/05/28 02:52:48;;;;;;;;;;;10.10;1.00;;;;;;5096857;28;19923;-81
2023/05/28 02:55:14;;;;;;;;;;;10.10;1.00;;;;;;5093934;28;19924;-80
2023/05/28 02:57:40;;;;;;;;;;;10.10;1.00;;;;;;5101265;28;19982;-80
2023/05/28 03:00:09;;;;;;;;;;;10.10;1.00;;;;;;5104900;28;20300;-79
2023/05/28 03:02:35;;;;;;;;;;;10.10;1.00;;;;;;5104490;28;20283;-79
2023/05/28 03:05:02;;;;;;;;;;;10.10;1.00;;;;;;5096140;28;19928;-82
2023/05/28 03:07:31;;;;;;;;;;;10.10;1.00;;;;;;5107127;28;19941;-86
2023/05/28 03:09:57;;;;;;;;;;;10.00;1.00;;;;;;5106216;28;19924;-80
2023/05/28 03:12:23;;;;;;;;;;;10.00;1.00;;;;;;5100111;28;20288;-80
2023/05/28 03:14:48;;;;;;;;;;;10.00;1.00;;;;;;5104690;28;19932;-81
2023/05/28 03:17:14;;;;;;;;;;;10.00;1.00;;;;;;5092083;28;19924;-79
2023/05/28 03:19:39;;;;;;;;;;;10.00;1.00;;;;;;5090556;28;19928;-80
2023/05/28 03:22:05;;;;;;;;;;;10.00;1.00;;;;;;5092280;28;20304;-80
2023/05/28 03:24:30;;;;;;;;;;;10.00;1.00;;;;;;5101068;28;19934;-86
2023/05/28 03:26:59;;;;;;;;;;;10.00;1.00;;;;;;5091351;28;19963;-80
2023/05/28 03:29:25;;;;;;;;;;;10.00;1.00;;;;;;5098765;28;20670;-79
2023/05/28 03:31:50;;;;;;;;;;;10.00;1.00;;;;;;5109306;28;19919;-80
2023/05/28 03:34:16;;;;;;;;;;;10.00;1.00;;;;;;5102819;28;19930;-80
2023/05/28 03:36:42;;;;;;;;;;;9.90;1.00;;;;;;5105260;28;20634;-79
2023/05/28 03:39:08;;;;;;;;;;;9.90;1.00;;;;;;5107840;28;19947;-79
2023/05/28 03:41:34;;;;;;;;;;;9.90;1.00;;;;;;5106293;28;20384;-85
2023/05/28 03:43:59;;;;;;;;;;;9.80;1.00;;;;;;5104565;28;20379;-80
2023/05/28 03:46:25;;;;;;;;;;;9.80;1.00;;;;;;5108513;28;19935;-79
2023/05/28 03:48:51;;;;;;;;;;;9.80;1.00;;;;;;5090975;28;19923;-81
2023/05/28 03:51:16;;;;;;;;;;;9.80;1.00;;;;;;5106351;28;19923;-79
2023/05/28 03:53:42;;;;;;;;;;;9.80;1.00;;;;;;5106142;28;19928;-80
2023/05/28 03:56:07;;;;;;;;;;;9.80;1.00;;;;;;5087807;28;19974;-80
2023/05/28 03:58:33;;;;;;;;;;;9.90;1.00;;;;;;5104749;28;20382;-83
2023/05/28 04:00:59;;;;;;;;;;;9.90;1.00;;;;;;5106006;28;19942;-81
2023/05/28 04:03:25;;;;;;;;;;;9.90;1.00;;;;;;5099205;28;19924;-80
2023/05/28 04:05:51;;;;;;;;;;;9.90;1.00;;;;;;5103344;28;20342;-85
2023/05/28 04:08:17;;;;;;;;;;;9.80;1.00;;;;;;5097306;28;19924;-79
2023/05/28 04:10:43;;;;;;;;;;;9.80;1.00;;;;;;5100324;28;19973;-84
2023/05/28 04:13:08;;;;;;;;;;;9.80;1.00;;;;;;5098081;28;20265;-81
2023/05/28 04:15:34;;;;;;;;;;;9.70;1.00;;;;;;5108718;28;19928;-80
2023/05/28 04:18:00;;;;;;;;;;;9.70;1.00;;;;;;5108450;28;19928;-80
2023/05/28 04:20:25;;;;;;;;;;;9.70;1.00;;;;;;5109128;28;19935;-82
2023/05/28 04:22:51;;;;;;;;;;;9.70;3.90;;;;;;5108252;28;20377;-82
2023/05/28 04:25:18;;;;;;;;;;;9.70;52.20;;;;;;5107819;28;19976;-78
2023/05/28 04:27:44;;;;;;;;;;;9.70;57.30;;;;;;5108173;28;19930;-80
2023/05/28 04:30:11;;;;;;;;;;;9.70;61.40;;;;;;5092201;28;19935;-80
2023/05/28 04:32:39;;;;;;;;;;;9.70;91.80;;;;;;5074833;28;19928;-80
2023/05/28 04:35:05;;;;;;;;;;;9.70;84.70;;;;;;5109046;28;19924;-80
2023/05/28 04:37:32;;;;;;;;;;;9.70;79.20;;;;;;5091504;28;20285;-81
2023/05/28 04:39:58;;;;;;;;;;;9.80;75.70;;;;;;5106324;28;19932;-82
2023/05/28 04:42:24;;;;;;;;;;;9.70;99.90;;;;;;5076277;28;19924;-81
2023/05/28 04:44:49;;;;;;;;;;;9.80;99.90;;;;;;5101522;28;20372;-80
2023/05/28 04:47:15;;;;;;;;;;;9.80;99.90;;;;;;5101537;28;19968;-83
2023/05/28 04:49:41;;;;;;;;;;;9.90;99.90;;;;;;5102632;28;20373;-85
2023/05/28 04:52:07;;;;;;;;;;;9.80;99.90;;;;;;5098565;28;19930;-80
2023/05/28 04:54:32;;;;;;;;;;;9.90;99.90;;;;;;5105239;28;19928;-80
2023/05/28 04:56:58;;;;;;;;;;;10.00;99.90;;;;;;5100882;28;19976;-81
2023/05/28 04:59:24;;;;;;;;;;;10.00;99.90;;;;;;5107316;28;19931;-79
2023/05/28 05:01:49;;;;;;;;;;;10.00;99.90;;;;;;5110736;28;19928;-80
2023/05/28 05:04:15;;;;;;;;;;;10.10;99.90;;;;;;5109448;28;20070;-79
2023/05/28 05:06:41;;;;;;;;;;;10.10;99.90;;;;;;5110248;28;19934;-84
2023/05/28 05:09:07;;;;;;;;;;;10.20;99.90;;;;;;5109357;28;19938;-80
2023/05/28 05:11:33;;;;;;;;;;;10.30;99.90;;;;;;5090713;28;19936;-80
2023/05/28 05:13:59;;;;;;;;;;;10.30;99.90;;;;;;5108087;28;19931;-81
2023/05/28 05:16:25;;;;;;;;;;;10.40;99.90;;;;;;5094477;28;19924;-80
2023/05/28 05:18:50;;;;;;;;;;;10.50;99.90;;;;;;5106664;28;19951;-79
2023/05/28 05:21:17;;;;;;;;;;;10.50;99.90;;;;;;5112108;28;19930;-80
2023/05/28 05:23:42;;;;;;;;;;;10.60;99.90;;;;;;5105952;28;19957;-80
2023/05/28 05:26:12;;;;;;;;;;;10.70;99.90;;;;;;5092511;28;19928;-81
2023/05/28 05:28:38;;;;;;;;;;;10.80;99.90;;;;;;5109098;28;19928;-81
2023/05/28 05:31:04;;;;;;;;;;;10.90;99.90;;;;;;5125635;27;20269;-80
2023/05/28 05:33:30;;;;;;;;;;;11.10;99.90;;;;;;5089966;28;19935;-80
2023/05/28 05:35:55;;;;;;;;;;;11.30;99.90;;;;;;5091243;28;20000;-80
2023/05/28 05:38:21;;;;;;;;;;;11.40;99.90;;;;;;5101444;28;20292;-81
2023/05/28 05:40:46;;;;;;;;;;;11.60;99.90;;;;;;5106650;28;19923;-80
2023/05/28 05:43:12;;;;;;;;;;;11.70;98.30;;;;;;5075566;28;19982;-81
2023/05/28 05:45:37;;;;;;;;;;;11.90;93.30;;;;;;5106395;28;20261;-81
2023/05/28 05:48:03;;;;;;;;;;;12.10;99.90;;;;;;5108598;28;19927;-81
2023/05/28 05:50:29;;;;;;;;;;;12.30;38.30;;;;;;5090926;28;19973;-81
2023/05/28 05:52:54;;;;;;;;;;;12.50;1.00;;;;;;5121403;27;20265;-81
2023/05/28 05:55:20;;;;;;;;;;;12.60;1.00;;;;;;5108545;28;19928;-81
2023/05/28 05:57:46;;;;;;;;;;;12.80;1.00;;;;;;5089875;28;19935;-81
2023/05/28 06:00:13;;;;;;;;;;;12.90;1.00;;;;;;5108000;28;20512;-82
2023/05/28 06:02:38;;;;;;;;;;;12.90;1.00;;;;;;5107896;28;19934;-82
2023/05/28 06:05:05;;;;;;;;;;;12.90;99.90;;;;;;5091922;28;20014;-81
2023/05/28 06:07:31;;;;;;;;;;;12.90;99.90;;;;;;5109296;28;19984;-81
2023/05/28 06:09:56;;;;;;;;;;;12.90;99.90;;;;;;5108979;28;19924;-81
2023/05/28 06:12:22;;;;;;;;;;;13.00;99.90;;;;;;5108504;28;19928;-81
2023/05/28 06:14:49;;;;;;;;;;;13.00;99.90;;;;;;5109795;28;19982;-83
2023/05/28 06:17:15;;;;;;;;;;;13.10;99.90;;;;;;5126893;27;19927;-81
2023/05/28 06:19:41;;;;;;;;;;;13.30;99.90;;;;;;5105809;28;19924;-82
2023/05/28 06:22:07;;;;;;;;;;;13.40;99.90;;;;;;5091446;28;19928;-81
2023/05/28 06:24:33;;;;;;;;;;;13.50;99.90;;;;;;5094766;28;19979;-82
2023/05/28 06:26:59;;;;;;;;;;;13.70;99.90;;;;;;5099415;28;19971;-81
2023/05/28 06:29:24;;;;;;;;;;;13.90;99.90;;;;;;5096124;28;19924;-81
2023/05/28 06:31:50;;;;;;;;;;;14.00;99.90;;;;;;5098951;28;19931;-82
2023/05/28 06:34:16;;;;;;;;;;;14.20;99.90;;;;;;5092285;28;20014;-81
2023/05/28 06:36:41;;;;;;;;;;;14.40;99.90;;;;;;5118237;27;20333;-81
2023/05/28 06:39:08;;;;;;;;;;;14.60;99.90;;;;;;5105968;28;19928;-81
2023/05/28 06:41:34;;;;;;;;;;;14.90;99.90;;;;;;5091592;28;19968;-82
2023/05/28 06:44:00;;;;;;;;;;;15.10;99.90;;;;;;5102518;28;19928;-83
2023/05/28 06:46:27;;;;;;;;;;;15.20;99.90;;;;;;5104837;28;19928;-82
2023/05/28 06:48:54;;;;;;;;;;;15.40;99.90;;;;;;5103598;28;19928;-82
2023/05/28 06:51:20;;;;;;;;;;;15.60;91.60;;;;;;5083480;28;19935;-82
2023/05/28 06:53:46;;;;;;;;;;;15.80;57.40;;;;;;5104543;28;19931;-83
2023/05/28 06:56:12;;;;;;;;;;;16.00;7.40;;;;;;5106850;28;20064;-83
2023/05/28 06:58:37;;;;;;;;;;;16.10;1.00;;;;;;5070650;28;20015;-81
2023/05/28 07:01:04;;;;;;;;;;;16.20;1.00;;;;;;5101719;28;20303;-82
2023/05/28 07:03:30;;;;;;;;;;;16.30;1.00;;;;;;5107059;28;20283;-84
2023/05/28 07:05:55;;;;;;;;;;;16.50;1.00;;;;;;5109006;28;19928;-81
2023/05/28 07:08:21;;;;;;;;;;;16.60;1.00;;;;;;5106480;28;19923;-82
2023/05/28 07:10:47;;;;;;;;;;;16.70;1.00;;;;;;5106595;28;19923;-83
2023/05/28 07:13:13;;;;;;;;;;;16.80;1.00;;;;;;5105779;28;20038;-83
2023/05/28 07:15:38;;;;;;;;;;;17.00;1.00;;;;;;5102226;28;19932;-82
2023/05/28 07:18:04;;;;;;;;;;;17.10;1.00;;;;;;5102542;28;20391;-85
2023/05/28 07:20:29;;;;;;;;;;;17.20;1.00;;;;;;5118739;27;20550;-82
2023/05/28 07:22:56;;;;;;;;;;;17.40;1.00;;;;;;5080824;28;20343;-83
2023/05/28 07:25:21;;;;;;;;;;;17.60;1.00;;;;;;5101703;28;19934;-82
2023/05/28 07:27:47;;;;;;;;;;;17.80;1.00;;;;;;5104352;28;19927;-81
2023/05/28 07:30:13;;;;;;;;;;;18.00;1.00;;;;;;5107899;28;19928;-84
2023/05/28 07:32:38;;;;;;;;;;;18.20;1.00;;;;;;5087391;28;19934;-83
2023/05/28 07:35:04;;;;;;;;;;;18.40;1.00;;;;;;5100260;28;20032;-84
2023/05/28 07:37:30;;;;;;;;;;;18.60;1.00;;;;;;5066757;28;20024;-83
2023/05/28 07:39:56;;;;;;;;;;;18.90;1.00;;;;;;5086037;28;20012;-84
2023/05/28 07:42:21;;;;;;;;;;;19.00;1.00;;;;;;5107304;28;19928;-83
2023/05/28 07:44:47;;;;;;;;;;;19.10;1.00;;;;;;5089220;28;19934;-82
2023/05/28 07:47:13;;;;;;;;;;;19.30;1.00;;;;;;5106601;28;19928;-82
2023/05/28 07:49:38;;;;;;;;;;;19.60;1.00;;;;;;5105800;28;20404;-82
2023/05/28 07:52:04;;;;;;;;;;;19.70;1.00;;;;;;5107685;28;19924;-83
2023/05/28 07:54:29;;;;;;;;;;;19.90;1.00;;;;;;5087772;28;19932;-82
2023/05/28 07:56:55;;;;;;;;;;;20.20;1.00;;;;;;5107862;28;19927;-82
2023/05/28 07:59:21;;;;;;;;;;;20.20;1.00;;;;;;5106158;28;19927;-82
2023/05/28 08:01:47;;;;;;;;;;;20.30;1.00;;;;;;5073821;28;20637;-87
2023/05/28 08:04:12;;;;;;;;;;;20.50;1.00;;;;;;5105877;28;19980;-88
2023/05/28 08:06:38;;;;;;;;;;;20.80;1.00;;;;;;5105973;28;19927;-86
2023/05/28 08:09:04;;;;;;;;;;;21.10;1.00;;;;;;5106017;28;20352;-85
2023/05/28 08:11:29;;;;;;;;;;;21.40;1.00;;;;;;5108257;28;19923;-85
2023/05/28 08:13:55;;;;;;;;;;;21.70;1.00;;;;;;5104210;28;19975;-83
2023/05/28 08:16:20;;;;;;;;;;;22.00;1.00;;;;;;5106530;28;19928;-83
2023/05/28 08:18:46;;;;;;;;;;;22.10;1.00;;;;;;5101990;28;20090;-82
2023/05/28 08:21:11;;;;;;;;;;;22.50;1.00;;;;;;5099509;28;19924;-84
2023/05/28 08:23:37;;;;;;;;;;;22.80;1.00;;;;;;5089883;28;19954;-85
2023/05/28 08:26:03;;;;;;;;;;;23.00;1.00;;;;;;5106019;28;20404;-86
2023/05/28 08:28:29;;;;;;;;;;;23.00;1.00;;;;;;5098506;28;19932;-85
2023/05/28 08:30:55;;;;;;;;;;;23.10;1.00;;;;;;5103330;28;19923;-85
2023/05/28 08:33:21;;;;;;;;;;;23.10;1.00;;;;;;5106578;27;19928;-86
2023/05/28 08:35:46;;;;;;;;;;;23.20;1.00;;;;;;5102191;27;20411;-85
2023/05/28 08:38:12;;;;;;;;;;;23.50;1.00;;;;;;5105519;28;20300;-86
2023/05/28 08:40:43;;;;;;;;;;;23.70;1.00;;;;;;5103185;28;19958;-85
2023/05/28 08:43:08;;;;;;;;;;;23.80;1.00;;;;;;5109820;28;19928;-86
2023/05/28 08:45:35;;;;;;;;;;;24.00;1.00;;;;;;5100914;28;19945;-86
2023/05/28 08:48:00;;;;;;;;;;;24.10;1.00;;;;;;5099506;28;20677;-86
2023/05/28 08:50:27;;;;;;;;;;;24.30;1.00;;;;;;5109785;28;20041;-86
2023/05/28 08:52:53;;;;;;;;;;;24.60;1.00;;;;;;5104550;28;19954;-85
2023/05/28 08:55:19;;;;;;;;;;;25.00;1.00;;;;;;5108152;28;19927;-85
2023/05/28 08:57:45;;;;;;;;;;;25.10;1.00;;;;;;5102455;28;20267;-86
2023/05/28 09:00:11;;;;;;;;;;;25.20;1.00;;;;;;5104983;28;20035;-85
2023/05/28 09:02:38;;;;;;;;;;;25.40;1.00;;;;;;5103248;28;19975;-84
2023/05/28 09:05:04;;;;;;;;;;;25.60;1.00;;;;;;5104345;28;19927;-85
2023/05/28 09:07:29;;;;;;;;;;;25.80;1.00;;;;;;5105714;28;19976;-84
2023/05/28 09:09:56;;;;;;;;;;;26.00;1.00;;;;;;5106940;28;20013;-84
2023/05/28 09:12:22;;;;;;;;;;;26.30;1.00;;;;;;5107972;28;19971;-85
2023/05/28 09:14:49;;;;;;;;;;;26.60;1.00;;;;;;5109116;28;19928;-84
2023/05/28 09:17:15;;;;;;;;;;;26.70;1.00;;;;;;5127798;27;20438;-84
2023/05/28 09:19:49;;;;;;;;;;;26.80;1.00;;;;;;5108124;28;19988;-84
2023/05/28 09:22:15;;;;;;;;;;;27.10;1.00;;;;;;5090017;28;19939;-84
2023/05/28 09:24:41;;;;;;;;;;;27.50;1.00;;;;;;5108244;28;20493;-84
2023/05/28 09:27:06;;;;;;;;;;;27.80;1.00;;;;;;5108471;28;19928;-86
2023/05/28 09:29:32;;;;;;;;;;;28.10;1.00;;;;;;5107634;28;19975;-85
2023/05/28 09:31:58;;;;;;;;;;;28.30;1.00;;;;;;5106767;28;19996;-85
2023/05/28 09:34:27;;;;;;;;;;;28.50;1.00;;;;;;5103387;28;19924;-84
2023/05/28 09:36:54;;;;;;;;;;;28.80;1.00;;;;;;5106893;28;19996;-84
2023/05/28 09:39:23;;;;;;;;;;;29.10;1.00;;;;;;5108416;28;19932;-80
2023/05/28 09:41:57;;;;;;;;;;;29.20;1.00;;;;;;5102362;28;20436;-81
2023/05/28 09:44:22;;;;;;;;;;;29.10;1.00;;;;;;5105877;28;20296;-88
2023/05/28 09:46:48;;;;;;;;;;;29.10;1.00;;;;;;5107267;28;19928;-84
2023/05/28 09:49:14;;;;;;;;;;;29.30;1.00;;;;;;5105590;28;19974;-84
2023/05/28 09:51:41;;;;;;;;;;;29.40;1.00;;;;;;5099586;28;19956;-85
2023/05/28 09:54:09;;;;;;;;;;;29.60;1.00;;;;;;5089640;28;19924;-85
2023/05/28 09:56:37;;;;;;;;;;;29.50;1.00;;;;;;5092541;28;20017;-85
2023/05/28 09:59:06;;;;;;;;;;;29.40;1.00;;;;;;5092367;28;20392;-85
2023/05/28 10:01:36;;;;;;;;;;;29.60;1.00;;;;;;5097116;28;19927;-85
2023/05/28 10:04:05;;;;;;;;;;;30.00;1.00;;;;;;5098496;28;19935;-85
2023/05/28 10:06:32;;;;;;;;;;;30.30;1.00;;;;;;5091607;28;20443;-85
2023/05/28 10:08:59;;;;;;;;;;;30.40;1.00;;;;;;5106217;28;20284;-85
2023/05/28 10:11:28;;;;;;;;;;;30.60;1.00;;;;;;5074943;28;19924;-85
2023/05/28 10:13:57;;;;;;;;;;;30.70;1.00;;;;;;5099311;28;19927;-85
2023/05/28 10:16:23;;;;;;;;;;;30.80;1.00;;;;;;5091570;28;20444;-85
2023/05/28 10:18:50;;;;;;;;;;;31.00;1.00;;;;;;5093167;28;19923;-85
2023/05/28 10:21:16;;;;;;;;;;;31.10;1.00;;;;;;5074785;28;20015;-85
2023/05/28 10:23:43;;;;;;;;;;;30.90;1.00;;;;;;5087132;28;19932;-86
2023/05/28 10:26:09;;;;;;;;;;;30.80;1.00;;;;;;5100629;28;19928;-86
2023/05/28 10:28:34;;;;;;;;;;;30.90;1.00;;;;;;5106447;28;19934;-85
2023/05/28 10:31:04;;;;;;;;;;;31.00;1.00;;;;;;5091577;28;20001;-85
2023/05/28 10:33:30;;;;;;;;;;;30.90;1.00;;;;;;5093524;28;19928;-87
2023/05/28 10:35:57;;;;;;;;;;;30.90;1.00;;;;;;5091046;28;19935;-85
2023/05/28 10:38:22;;;;;;;;;;;30.90;1.00;;;;;;5088409;28;19979;-85
2023/05/28 10:40:51;;;;;;;;;;;31.10;1.00;;;;;;5089447;28;19994;-85
2023/05/28 10:43:35;;;;;;;;;;;31.20;1.00;;;;;;5103916;28;20006;-85
2023/05/28 10:46:01;;;;;;;;;;;31.30;1.00;;;;;;5109690;28;19932;-84
2023/05/28 10:48:29;;;;;;;;;;;32.00;1.00;;;;;;5110193;28;20364;-85
2023/05/28 10:50:55;;;;;;;;;;;32.60;1.00;;;;;;5109851;28;19928;-85
2023/05/28 10:53:21;;;;;;;;;;;32.90;1.00;;;;;;5109275;28;19927;-85
2023/05/28 10:55:48;;;;;;;;;;;32.70;1.00;;;;;;5108711;28;20287;-86
2023/05/28 10:58:22;;;;;;;;;;;32.50;1.00;;;;;;5125106;27;19981;-85
2023/05/28 11:00:47;;;;;;;;;;;32.60;1.00;;;;;;5109571;28;19923;-85
2023/05/28 11:03:13;;;;;;;;;;;32.50;1.00;;;;;;5108900;28;20006;-85
2023/05/28 11:05:39;;;;;;;;;;;32.30;1.00;;;;;;5107103;28;19928;-85
2023/05/28 11:08:05;;;;;;;;;;;32.30;1.00;;;;;;5109879;27;20281;-85
2023/05/28 11:10:31;;;;;;;;;;;32.30;1.00;;;;;;5102714;28;19932;-85
2023/05/28 11:12:56;;;;;;;;;;;32.40;1.00;;;;;;5123751;27;19934;-85
2023/05/28 11:15:22;;;;;;;;;;;32.50;1.00;;;;;;5109269;28;20416;-85
2023/05/28 11:17:49;;;;;;;;;;;32.80;1.00;;;;;;5108787;28;19935;-85
2023/05/28 11:20:22;;;;;;;;;;;33.20;1.00;;;;;;5109509;28;19928;-85
2023/05/28 11:22:48;;;;;;;;;;;33.40;1.00;;;;;;5123708;27;19930;-85
2023/05/28 11:25:14;;;;;;;;;;;33.40;1.00;;;;;;5108270;28;19930;-85
2023/05/28 11:27:40;;;;;;;;;;;33.20;1.00;;;;;;5107600;28;19927;-86
2023/05/28 11:30:11;;;;;;;;;;;33.00;1.00;;;;;;5096848;28;19930;-85
2023/05/28 11:32:37;;;;;;;;;;;33.10;1.00;;;;;;5092950;28;19947;-85
2023/05/28 11:35:04;;;;;;;;;;;33.30;1.00;;;;;;5090328;28;19961;-84
2023/05/28 11:37:31;;;;;;;;;;;33.40;1.00;;;;;;5090284;28;20398;-85
2023/05/28 11:39:57;;;;;;;;;;;33.50;1.00;;;;;;5108095;28;19924;-85
2023/05/28 11:42:24;;;;;;;;;;;33.60;1.00;;;;;;5105427;28;19928;-85
2023/05/28 11:44:50;;;;;;;;;;;33.80;1.00;;;;;;5101544;28;19928;-85
2023/05/28 11:47:16;;;;;;;;;;;33.90;1.00;;;;;;5088743;28;20022;-85
2023/05/28 11:49:42;;;;;;;;;;;34.00;1.00;;;;;;5103596;28;20073;-85
2023/05/28 11:52:12;;;;;;;;;;;34.30;1.00;;;;;;5109108;28;20021;-85
2023/05/28 11:54:41;;;;;;;;;;;34.50;1.00;;;;;;5108462;28;19928;-86
2023/05/28 11:57:08;;;;;;;;;;;34.60;1.00;;;;;;5092178;28;19935;-84
2023/05/28 11:59:34;;;;;;;;;;;34.60;1.00;;;;;;5107253;28;20273;-86
2023/05/28 12:02:13;;;;;;;;;;;34.50;1.00;;;;;;5108411;28;19934;-85
2023/05/28 12:04:39;;;;;;;;;;;34.50;1.00;;;;;;5091543;28;19928;-85
2023/05/28 12:07:05;;;;;;;;;;;34.60;1.00;;;;;;5112308;28;19931;-85
2023/05/28 12:09:30;;;;;;;;;;;34.70;1.00;;;;;;5112515;28;20474;-85
2023/05/28 12:12:11;;;;;;;;;;;34.50;1.00;;;;;;5112658;28;19935;-85
2023/05/28 12:14:37;;;;;;;;;;;34.40;1.00;;;;;;5108200;28;20288;-85
2023/05/28 12:17:04;;;;;;;;;;;34.20;1.00;;;;;;5112603;28;19919;-85
2023/05/28 12:19:33;;;;;;;;;;;34.20;1.00;;;;;;5095416;28;19935;-85
2023/05/28 12:22:00;;;;;;;;;;;34.40;1.00;;;;;;5112371;28;19927;-85
2023/05/28 12:24:27;;;;;;;;;;;34.30;1.00;;;;;;5112589;28;20373;-83
2023/05/28 12:26:52;;;;;;;;;;;34.10;1.00;;;;;;5095170;28;20003;-82
2023/05/28 12:29:18;;;;;;;;;;;33.90;1.00;;;;;;5112179;28;20043;-83
2023/05/28 12:31:44;;;;;;;;;;;33.60;1.00;;;;;;5112244;28;19987;-84
2023/05/28 12:34:10;;;;;;;;;;;33.80;1.00;;;;;;5077006;28;19927;-83
2023/05/28 12:36:35;;;;;;;;;;;33.90;1.00;;;;;;5112227;28;20261;-83
2023/05/28 12:39:01;;;;;;;;;;;33.70;1.00;;;;;;5087995;28;19935;-83
2023/05/28 12:41:27;;;;;;;;;;;33.70;1.00;;;;;;5092453;28;19967;-83
2023/05/28 12:43:52;;;;;;;;;;;33.80;1.00;;;;;;5108655;27;20534;-83
2023/05/28 12:46:18;;;;;;;;;;;34.10;1.00;;;;;;5105239;28;19954;-83
2023/05/28 12:48:43;;;;;;;;;;;34.00;1.00;;;;;;5075624;28;19928;-83
2023/05/28 12:51:09;;;;;;;;;;;34.00;1.00;;;;;;5091784;28;19990;-83
2023/05/28 12:53:35;;;;;;;;;;;33.80;1.00;;;;;;5100169;28;20010;-83
2023/05/28 12:56:00;;;;;;;;;;;33.60;1.00;;;;;;5110925;28;20430;-83
2023/05/28 12:58:27;;;;;;;;;;;33.70;1.00;;;;;;5111770;28;19928;-85
2023/05/28 13:00:52;;;;;;;;;;;33.20;1.00;;;;;;5128440;27;20375;-83
2023/05/28 13:03:18;;;;;;;;;;;33.30;1.00;;;;;;5112503;28;19927;-83
2023/05/28 13:05:43;;;;;;;;;;;33.60;1.00;;;;;;5111597;28;20390;-83
2023/05/28 13:08:09;;;;;;;;;;;33.60;1.00;;;;;;5112376;28;19981;-82
2023/05/28 13:10:35;;;;;;;;;;;33.50;1.00;;;;;;5110790;28;20334;-82
2023/05/28 13:13:00;;;;;;;;;;;33.30;1.00;;;;;;5109302;28;20616;-82
2023/05/28 13:15:26;;;;;;;;;;;33.00;1.00;;;;;;5094420;28;19928;-83
2023/05/28 13:17:51;;;;;;;;;;;32.90;1.00;;;;;;5109828;28;19967;-84
2023/05/28 13:20:17;;;;;;;;;;;32.60;1.00;;;;;;5111673;28;19928;-82
2023/05/28 13:22:43;;;;;;;;;;;32.50;1.00;;;;;;5094575;28;19935;-86
2023/05/28 13:25:09;;;;;;;;;;;32.50;1.00;;;;;;5112764;28;19996;-85
2023/05/28 13:27:35;;;;;;;;;;;32.50;1.00;;;;;;5093971;28;19990;-85
2023/05/28 13:30:02;;;;;;;;;;;32.60;1.00;;;;;;5111361;28;19974;-85
2023/05/28 13:32:27;;;;;;;;;;;32.70;1.00;;;;;;5093904;28;20388;-85
2023/05/28 13:34:53;;;;;;;;;;;32.30;1.00;;;;;;5094082;28;19928;-86
2023/05/28 13:37:19;;;;;;;;;;;32.10;1.00;;;;;;5111221;28;19963;-84
2023/05/28 13:39:45;;;;;;;;;;;31.90;1.00;;;;;;5110153;28;19924;-84
2023/05/28 13:42:11;;;;;;;;;;;31.70;1.00;;;;;;5126540;27;19930;-85
2023/05/28 13:44:37;;;;;;;;;;;31.70;1.00;;;;;;5111802;28;19934;-82
2023/05/28 13:47:03;;;;;;;;;;;31.90;1.00;;;;;;5110134;28;19934;-82
2023/05/28 13:49:29;;;;;;;;;;;31.90;1.00;;;;;;5093485;28;19928;-83
2023/05/28 13:51:55;;;;;;;;;;;32.00;1.00;;;;;;5105996;28;19946;-84
2023/05/28 13:54:20;;;;;;;;;;;32.00;1.00;;;;;;5105274;28;19931;-82
2023/05/28 13:56:46;;;;;;;;;;;32.00;1.00;;;;;;5110833;28;20361;-82
2023/05/28 13:59:11;;;;;;;;;;;31.80;1.00;;;;;;5109550;28;19988;-82
2023/05/28 14:01:37;;;;;;;;;;;31.40;1.00;;;;;;5109689;28;19927;-82
2023/05/28 14:04:03;;;;;;;;;;;31.20;1.00;;;;;;5073022;28;20359;-83
2023/05/28 14:06:28;;;;;;;;;;;31.10;1.00;;;;;;5093059;28;20053;-83
2023/05/28 14:08:55;;;;;;;;;;;31.00;1.00;;;;;;5108530;28;19924;-83
2023/05/28 14:11:20;;;;;;;;;;;31.00;1.00;;;;;;5092376;28;19928;-83
2023/05/28 14:13:46;;;;;;;;;;;31.10;1.00;;;;;;5109710;28;19928;-82
2023/05/28 14:16:11;;;;;;;;;;;31.10;1.00;;;;;;5110979;28;20006;-82
2023/05/28 14:18:37;;;;;;;;;;;31.00;1.00;;;;;;5093557;28;19928;-83
2023/05/28 14:21:03;;;;;;;;;;;30.70;1.00;;;;;;5093845;28;20374;-83
2023/05/28 14:23:28;;;;;;;;;;;30.70;1.00;;;;;;5090635;28;19967;-82
2023/05/28 14:25:54;;;;;;;;;;;30.80;1.00;;;;;;5091858;28;20384;-83